Hauptseite
METAR-TAF:

METAR-TAF

Flughäfen :

Kuantan, Malaysia

Breite: 03-37N, Länge: 103-13E, Höhe: 18 m

Beobachtung

Neuester Wetterbericht von vor 46 Minuten, um 19:00 UTC
Windstille
Temperatur 25°C
Luftfeuchtigkeit 94%
Luftdruck 1009 hPa
Sichtweite 10 km oder mehr
Leicht bewölkt in der Höhe von 2500 ft

METAR: WMKD 181900Z 00000KT 9999 FEW025 25/24 Q1009 NOSIG

Zeit: 03:46 (19:46 UTC)


TAF: fehlend

Wetterbeobachtungen und Prognosen von mehr als 4000 Flughäfen (METAR und TAF Bericht).

Die verfügbaren Stationen werden durch gelbe und rote Markierungen auf der Karte dargestellt.

Führen Sie die Maus auf sie, um den Namen der Station zu sehen.

Darauf klicken, um die Beobachtung von Wetterbeobachtungen und Prognosen zu sehen.

Um die Karte zu ändern : klicken Sie auf den grünen Tasten mit einem schwarzen Kreuz Zum Vergrößern, auf den grünen Button mit einem Gedankenstrich zu verkleinern, oder auf die grünen Pfeile für benachbarte Karten.


METAR-TAF: